Time;durP1;ratioP1;P1;durP2;ratioP2;P2;SDS_P1;SDS_P2;PMS_P1;PMS_P2;Temp;Humidity;BMP_temperature;BMP_pressure;BME280_temperature;BME280_humidity;BME280_pressure;Samples;Min_cycle;Max_cycle;Signal;HPM_P1;HPM_P2
2021/05/23 00:01:17;;;;;;;3.42;2.35;;;;;;;10.33;78.00;99609.50;5073331;28;20409;-58
2021/05/23 00:03:45;;;;;;;6.68;2.83;;;;;;;10.33;78.07;99610.34;5073321;28;20055;-52
2021/05/23 00:06:16;;;;;;;4.57;2.80;;;;;;;10.39;77.88;99607.38;5073278;28;20056;-57
2021/05/23 00:08:43;;;;;;;5.35;2.67;;;;;;;10.42;77.99;99599.16;5072943;28;20049;-57
2021/05/23 00:11:10;;;;;;;5.18;2.70;;;;;;;10.42;77.55;99593.59;5073323;28;20048;-55
2021/05/23 00:13:39;;;;;;;6.47;3.22;;;;;;;10.46;77.66;99602.09;5073345;28;20056;-57
2021/05/23 00:16:11;;;;;;;6.47;3.13;;;;;;;10.41;77.65;99600.31;5073161;28;20056;-55
2021/05/23 00:18:41;;;;;;;4.05;2.83;;;;;;;10.47;77.26;99596.19;5073286;28;20052;-51
2021/05/23 00:21:10;;;;;;;4.78;2.70;;;;;;;10.50;77.14;99605.84;5073241;28;20371;-58
2021/05/23 00:23:37;;;;;;;5.85;2.50;;;;;;;10.47;77.14;99609.28;5072490;28;20056;-55
2021/05/23 00:26:05;;;;;;;4.93;2.53;;;;;;;10.47;77.63;99610.09;5073420;28;20052;-58
2021/05/23 00:28:32;;;;;;;4.55;2.70;;;;;;;10.51;77.24;99615.81;5073040;28;20425;-56
2021/05/23 00:31:03;;;;;;;5.47;3.47;;;;;;;10.44;77.75;99613.56;5072829;28;20056;-58
2021/05/23 00:33:30;;;;;;;7.55;3.30;;;;;;;10.36;78.51;99617.22;5072646;28;20049;-58
2021/05/23 00:35:57;;;;;;;10.40;3.70;;;;;;;10.41;78.79;99619.78;5072207;28;20060;-53
2021/05/23 00:38:25;;;;;;;6.38;3.55;;;;;;;10.32;78.67;99607.88;5072792;28;20052;-56
2021/05/23 00:40:52;;;;;;;7.95;4.30;;;;;;;10.29;79.06;99612.16;5073508;28;20049;-58
2021/05/23 00:43:20;;;;;;;6.53;3.55;;;;;;;10.28;78.89;99604.09;5072962;28;20059;-55
2021/05/23 00:45:49;;;;;;;5.75;2.75;;;;;;;10.23;78.60;99604.31;5052937;28;20056;-58
2021/05/23 00:48:17;;;;;;;5.23;2.70;;;;;;;10.11;78.74;99619.72;5052609;28;20509;-55
2021/05/23 00:50:44;;;;;;;4.40;2.72;;;;;;;10.09;78.78;99619.22;5052492;28;20056;-55
2021/05/23 00:53:14;;;;;;;6.55;2.83;;;;;;;10.19;78.57;99614.47;5052659;28;20053;-53
2021/05/23 00:55:44;;;;;;;3.63;2.58;;;;;;;10.24;78.31;99614.28;5091730;28;20052;-51
2021/05/23 00:58:12;;;;;;;4.35;2.38;;;;;;;10.21;77.70;99614.94;5093073;28;20044;-55
2021/05/23 01:01:11;;;;;;;3.35;1.67;;;;;;;10.27;77.92;99619.19;5092515;28;20048;-51
2021/05/23 01:03:59;;;;;;;6.13;2.20;;;;;;;10.24;77.72;99619.84;5092789;28;20058;-51
2021/05/23 01:06:27;;;;;;;4.38;2.22;;;;;;;10.32;77.70;99616.25;5092536;28;20059;-57
2021/05/23 01:08:55;;;;;;;4.63;2.45;;;;;;;10.32;78.07;99616.25;5092497;28;20481;-56
2021/05/23 01:12:09;;;;;;;6.75;2.50;;;;;;;10.39;77.39;99616.53;5092757;28;20052;-56
2021/05/23 01:14:48;;;;;;;3.63;2.25;;;;;;;10.41;77.48;99618.97;5092412;28;20055;-56
2021/05/23 01:17:18;;;;;;;3.10;1.95;;;;;;;10.43;77.03;99620.28;5093220;28;20052;-57
2021/05/23 01:20:02;;;;;;;3.65;2.10;;;;;;;10.46;77.38;99624.38;5092804;28;20382;-58
2021/05/23 01:22:37;;;;;;;3.75;2.20;;;;;;;10.48;76.81;99624.88;5092707;28;20055;-58
2021/05/23 01:25:17;;;;;;;5.70;2.50;;;;;;;10.50;76.74;99623.38;5092208;28;20055;-58
2021/05/23 01:27:47;;;;;;;5.43;2.60;;;;;;;10.48;77.15;99634.03;5092491;28;20056;-58
2021/05/23 01:30:18;;;;;;;5.97;2.58;;;;;;;10.46;76.73;99630.75;5092699;28;20055;-58
2021/05/23 01:32:49;;;;;;;4.78;2.40;;;;;;;10.46;76.66;99629.94;5092353;28;20048;-56
2021/05/23 01:35:21;;;;;;;3.55;2.38;;;;;;;10.45;77.14;99631.88;5091902;28;20056;-55
2021/05/23 01:37:52;;;;;;;5.15;2.83;;;;;;;10.57;77.26;99629.22;5092914;28;20052;-55
2021/05/23 01:40:20;;;;;;;3.97;2.42;;;;;;;10.56;77.06;99633.16;5092458;28;20048;-58
2021/05/23 01:42:49;;;;;;;5.45;2.53;;;;;;;10.64;76.98;99625.09;5092414;28;20056;-57
2021/05/23 01:45:17;;;;;;;4.82;2.17;;;;;;;10.63;76.71;99635.44;5092582;28;20060;-55
2021/05/23 01:47:45;;;;;;;5.00;2.17;;;;;;;10.65;76.45;99635.09;5092603;28;20055;-58
2021/05/23 01:50:13;;;;;;;4.22;2.17;;;;;;;10.71;76.81;99639.31;5092312;28;20052;-57
2021/05/23 01:52:48;;;;;;;3.97;2.08;;;;;;;10.72;76.31;99633.41;5091583;28;20511;-58
2021/05/23 01:55:15;;;;;;;3.95;2.20;;;;;;;10.79;76.65;99629.28;5091957;28;20412;-58
2021/05/23 01:57:43;;;;;;;4.60;2.17;;;;;;;10.74;76.22;99635.84;5092612;28;20062;-54
2021/05/23 02:00:12;;;;;;;4.45;2.05;;;;;;;10.77;76.15;99636.00;5092075;28;20052;-59
2021/05/23 02:02:39;;;;;;;3.33;1.90;;;;;;;10.78;75.46;99639.59;5084391;28;20052;-59
2021/05/23 02:05:07;;;;;;;3.40;2.00;;;;;;;10.81;76.21;99644.50;5072558;28;20048;-57
2021/05/23 02:07:35;;;;;;;3.38;1.98;;;;;;;10.88;76.53;99635.63;5071935;28;20044;-58
2021/05/23 02:10:04;;;;;;;4.57;2.10;;;;;;;10.92;76.20;99634.59;5074449;28;20064;-57
2021/05/23 02:12:33;;;;;;;5.37;2.23;;;;;;;10.96;76.29;99632.78;5075912;28;20051;-57
2021/05/23 02:15:01;;;;;;;5.28;1.90;;;;;;;10.94;76.00;99637.88;5075466;28;20501;-55
2021/05/23 02:17:28;;;;;;;4.18;1.88;;;;;;;10.90;75.99;99636.91;5075378;28;20405;-56
2021/05/23 02:19:55;;;;;;;3.35;1.90;;;;;;;10.89;76.07;99634.47;5075594;28;20470;-56
2021/05/23 02:22:22;;;;;;;3.15;2.03;;;;;;;10.96;76.11;99630.00;5075943;28;20048;-58
2021/05/23 02:24:49;;;;;;;3.40;2.00;;;;;;;10.95;75.89;99625.56;5076424;28;20049;-57
2021/05/23 02:27:15;;;;;;;4.85;1.95;;;;;;;10.97;76.16;99631.63;5075726;28;20052;-57
2021/05/23 02:29:42;;;;;;;3.83;2.10;;;;;;;11.00;76.32;99630.13;5076144;28;20053;-58
2021/05/23 02:32:12;;;;;;;3.47;1.88;;;;;;;11.02;76.18;99627.81;5075680;28;20494;-59
2021/05/23 02:34:46;;;;;;;4.30;2.75;;;;;;;10.99;75.15;99630.47;5075181;28;20064;-59
2021/05/23 02:37:13;;;;;;;4.43;2.40;;;;;;;10.91;74.90;99627.38;5075487;28;20057;-58
2021/05/23 02:39:40;;;;;;;3.25;2.70;;;;;;;10.81;74.37;99638.09;5074842;28;20500;-58
2021/05/23 02:42:07;;;;;;;5.75;2.90;;;;;;;10.73;74.83;99635.03;5075460;28;20048;-57
2021/05/23 02:44:33;;;;;;;3.30;2.65;;;;;;;10.77;75.21;99633.22;5075262;28;20060;-57
2021/05/23 02:47:02;;;;;;;8.40;3.78;;;;;;;10.77;74.99;99632.38;5075017;28;20057;-58
2021/05/23 02:49:30;;;;;;;3.88;2.63;;;;;;;10.84;75.37;99641.03;5074661;28;20059;-56
2021/05/23 02:51:57;;;;;;;4.82;3.22;;;;;;;10.85;75.26;99639.06;5075554;28;20053;-55
2021/05/23 02:54:24;;;;;;;4.15;2.90;;;;;;;10.75;74.80;99640.25;5074739;28;20493;-59
2021/05/23 02:56:50;;;;;;;3.80;2.53;;;;;;;10.79;74.96;99645.97;5074680;28;20063;-58
2021/05/23 02:59:17;;;;;;;3.67;2.78;;;;;;;10.71;74.49;99642.13;5074694;28;20056;-57
2021/05/23 03:01:44;;;;;;;5.18;3.13;;;;;;;10.77;74.74;99649.94;5074189;28;20473;-58
2021/05/23 03:04:11;;;;;;;6.15;2.92;;;;;;;10.77;74.55;99651.88;5074962;28;20049;-59
2021/05/23 03:06:38;;;;;;;4.22;2.92;;;;;;;10.69;74.96;99656.38;5074359;28;20064;-57
2021/05/23 03:09:06;;;;;;;4.75;3.30;;;;;;;10.61;75.00;99656.41;5074538;28;20425;-59
2021/05/23 03:11:32;;;;;;;4.70;3.20;;;;;;;10.68;75.18;99651.94;5074676;28;20053;-57
2021/05/23 03:13:59;;;;;;;3.17;2.85;;;;;;;10.74;74.67;99666.50;5074128;28;20052;-56
2021/05/23 03:16:26;;;;;;;4.43;3.55;;;;;;;10.74;74.65;99661.72;5074444;28;20044;-57
2021/05/23 03:18:56;;;;;;;5.20;3.47;;;;;;;10.74;75.06;99666.50;5074375;28;20057;-56
2021/05/23 03:21:23;;;;;;;4.25;3.65;;;;;;;10.76;75.23;99670.56;5073429;28;20048;-59
2021/05/23 03:23:50;;;;;;;5.93;3.90;;;;;;;10.76;75.21;99670.56;5073804;28;20048;-59
2021/05/23 03:26:17;;;;;;;4.70;4.20;;;;;;;10.68;75.92;99676.19;5074079;28;20067;-57
2021/05/23 03:28:44;;;;;;;8.02;5.03;;;;;;;10.72;76.62;99683.53;5073889;28;20052;-58
2021/05/23 03:31:11;;;;;;;5.70;4.72;;;;;;;10.64;77.01;99689.16;5074138;28;20060;-55
2021/05/23 03:33:38;;;;;;;7.57;5.20;;;;;;;10.58;77.45;99696.84;5073806;28;20044;-59
2021/05/23 03:36:05;;;;;;;6.75;5.00;;;;;;;10.62;77.33;99691.44;5074399;28;20500;-51
2021/05/23 03:38:32;;;;;;;7.80;5.68;;;;;;;10.62;77.79;99694.22;5073853;28;20056;-55
2021/05/23 03:41:00;;;;;;;8.93;6.22;;;;;;;10.63;78.16;99693.91;5073667;28;20481;-57
2021/05/23 03:43:27;;;;;;;8.15;6.00;;;;;;;10.62;78.22;99694.22;5073082;28;20048;-58
2021/05/23 03:45:54;;;;;;;9.73;7.18;;;;;;;10.66;78.64;99703.56;5073771;28;20512;-57
2021/05/23 03:48:21;;;;;;;9.70;7.00;;;;;;;10.50;78.89;99697.75;5073602;28;20056;-56
2021/05/23 03:50:47;;;;;;;9.68;7.13;;;;;;;10.42;79.25;99704.16;5073595;28;20053;-58
2021/05/23 03:53:14;;;;;;;10.82;7.82;;;;;;;10.30;79.92;99705.63;5073386;28;20060;-54
2021/05/23 03:55:44;;;;;;;10.75;7.85;;;;;;;10.38;80.03;99709.56;5072624;28;20060;-59
2021/05/23 03:58:12;;;;;;;15.73;8.35;;;;;;;10.32;80.19;99708.09;5073333;28;20416;-58
2021/05/23 04:00:39;;;;;;;10.50;8.13;;;;;;;10.30;80.45;99722.34;5073402;28;20401;-58
2021/05/23 04:03:06;;;;;;;14.43;9.23;;;;;;;10.35;80.21;99724.97;5073113;28;20052;-58
2021/05/23 04:05:33;;;;;;;11.65;7.85;;;;;;;10.35;80.61;99727.75;5072921;28;20064;-57
2021/05/23 04:08:00;;;;;;;12.40;8.57;;;;;;;10.40;80.13;99729.53;5073337;28;20059;-56
2021/05/23 04:10:31;;;;;;;12.00;8.40;;;;;;;10.43;80.74;99733.59;5072758;28;20055;-57
2021/05/23 04:12:59;;;;;;;14.40;9.25;;;;;;;10.46;80.60;99739.34;5073490;28;20492;-54
2021/05/23 04:15:27;;;;;;;10.80;8.50;;;;;;;10.56;80.33;99752.06;5072983;28;20425;-58
2021/05/23 04:17:54;;;;;;;12.32;8.68;;;;;;;10.42;79.81;99748.69;5072724;28;20406;-56
2021/05/23 04:20:23;;;;;;;11.25;7.93;;;;;;;10.33;80.61;99751.47;5072895;28;20057;-59
2021/05/23 04:22:50;;;;;;;12.18;7.60;;;;;;;10.26;80.76;99753.91;5073033;28;20048;-59
2021/05/23 04:25:21;;;;;;;9.90;6.63;;;;;;;10.20;80.98;99760.81;5072167;28;20115;-58
2021/05/23 04:27:50;;;;;;;10.45;7.20;;;;;;;10.05;82.89;99757.38;5072887;28;20064;-56
2021/05/23 04:30:19;;;;;;;10.75;7.80;;;;;;;10.06;82.88;99761.00;5072785;28;20052;-56
2021/05/23 04:32:48;;;;;;;10.65;7.53;;;;;;;10.06;83.14;99766.56;5072256;28;20063;-53
2021/05/23 04:35:15;;;;;;;9.25;7.60;;;;;;;10.07;82.24;99766.22;5072815;28;20053;-56
2021/05/23 04:37:43;;;;;;;8.15;7.20;;;;;;;10.13;82.31;99778.81;5072718;28;20063;-54
2021/05/23 04:40:12;;;;;;;8.98;7.65;;;;;;;10.28;81.83;99762.75;5072732;28;20063;-54
2021/05/23 04:42:39;;;;;;;9.13;7.30;;;;;;;10.33;81.28;99773.75;5072257;28;20405;-54
2021/05/23 04:45:07;;;;;;;10.23;7.22;;;;;;;10.38;80.96;99770.78;5073167;28;20485;-55
2021/05/23 04:47:35;;;;;;;9.57;7.50;;;;;;;10.45;80.52;99779.44;5072536;28;20417;-54
2021/05/23 04:50:04;;;;;;;9.23;7.57;;;;;;;10.47;80.82;99784.69;5072453;28;20056;-58
2021/05/23 04:52:31;;;;;;;8.93;7.30;;;;;;;10.56;80.21;99791.91;5072957;28;20044;-53
2021/05/23 04:54:58;;;;;;;8.68;7.35;;;;;;;10.49;79.55;99788.78;5085819;28;20060;-51
2021/05/23 04:57:25;;;;;;;8.20;7.40;;;;;;;10.51;79.69;99799.59;5092608;28;20048;-51
2021/05/23 04:59:53;;;;;;;11.18;7.53;;;;;;;10.69;79.45;99794.81;5092829;28;20056;-56
2021/05/23 05:02:20;;;;;;;9.98;7.10;;;;;;;10.77;78.88;99799.53;5087856;28;20052;-57
2021/05/23 05:04:47;;;;;;;9.15;7.00;;;;;;;10.79;78.69;99810.34;5072794;28;20059;-55
2021/05/23 05:07:18;;;;;;;8.63;7.72;;;;;;;10.70;79.08;99805.59;5072630;28;20064;-52
2021/05/23 05:09:44;;;;;;;9.52;7.28;;;;;;;10.76;78.63;99811.81;5072229;28;20052;-51
2021/05/23 05:12:11;;;;;;;10.25;7.50;;;;;;;10.82;78.47;99809.69;5072803;28;20053;-55
2021/05/23 05:14:38;;;;;;;8.77;7.65;;;;;;;10.99;78.62;99812.41;5072263;28;20045;-55
2021/05/23 05:17:05;;;;;;;8.02;7.00;;;;;;;11.08;77.54;99809.59;5073115;28;20055;-57
2021/05/23 05:19:32;;;;;;;9.25;7.85;;;;;;;11.23;77.39;99806.22;5072713;28;20060;-54
2021/05/23 05:21:59;;;;;;;8.98;7.70;;;;;;;11.32;76.86;99806.22;5072481;28;20486;-57
2021/05/23 05:24:27;;;;;;;8.48;7.50;;;;;;;11.38;76.45;99813.19;5072527;28;20111;-57
2021/05/23 05:26:54;;;;;;;8.85;6.57;;;;;;;11.25;76.57;99814.25;5072690;28;20044;-57
2021/05/23 05:29:21;;;;;;;8.77;7.45;;;;;;;11.27;76.59;99823.91;5072446;28;20052;-58
2021/05/23 05:31:48;;;;;;;8.77;7.22;;;;;;;11.24;76.63;99812.66;5072579;28;20067;-58
2021/05/23 05:34:15;;;;;;;8.10;7.07;;;;;;;11.24;76.56;99826.59;5072250;28;20048;-58
2021/05/23 05:36:42;;;;;;;8.30;6.72;;;;;;;11.25;76.70;99828.19;5072696;28;20048;-56
2021/05/23 05:39:10;;;;;;;8.30;6.43;;;;;;;11.22;76.44;99829.69;5072320;28;20056;-56
2021/05/23 05:41:37;;;;;;;8.82;7.40;;;;;;;11.31;76.26;99829.66;5072223;28;20063;-58
2021/05/23 05:44:05;;;;;;;8.07;6.50;;;;;;;11.36;76.22;99833.09;5073622;28;20044;-58
2021/05/23 05:46:32;;;;;;;9.32;7.28;;;;;;;11.31;76.21;99829.66;5075731;28;20048;-57
2021/05/23 05:48:59;;;;;;;9.23;7.40;;;;;;;11.44;75.69;99825.81;5083138;28;20044;-55
2021/05/23 05:51:26;;;;;;;9.35;7.60;;;;;;;11.61;75.60;99822.09;5075742;28;20056;-58
2021/05/23 05:53:53;;;;;;;8.35;7.45;;;;;;;11.88;74.50;99825.53;5079819;28;20063;-58
2021/05/23 05:56:19;;;;;;;9.50;7.22;;;;;;;12.15;73.59;99833.41;5095909;28;20056;-58
2021/05/23 05:58:47;;;;;;;9.20;7.43;;;;;;;12.39;72.32;99829.13;5095418;28;20059;-58
2021/05/23 06:01:14;;;;;;;8.52;7.63;;;;;;;12.51;72.30;99836.72;5096122;28;20382;-57
2021/05/23 06:03:41;;;;;;;10.82;8.00;;;;;;;12.46;71.96;99845.31;5095283;28;20047;-57
2021/05/23 06:06:08;;;;;;;8.88;7.97;;;;;;;12.41;72.08;99843.56;5095589;28;20071;-58
2021/05/23 06:08:35;;;;;;;9.13;7.60;;;;;;;12.36;72.43;99841.78;5095142;28;20048;-57
2021/05/23 06:11:02;;;;;;;12.48;8.32;;;;;;;12.26;73.60;99846.97;5095961;28;20044;-55
2021/05/23 06:13:29;;;;;;;11.05;8.77;;;;;;;12.09;73.80;99847.91;5094954;28;20044;-56
2021/05/23 06:15:58;;;;;;;14.02;9.35;;;;;;;12.09;74.75;99856.28;5095374;28;20052;-57
2021/05/23 06:18:25;;;;;;;13.98;10.32;;;;;;;12.12;75.83;99850.84;5093784;28;20051;-57
2021/05/23 06:20:52;;;;;;;12.18;9.32;;;;;;;11.97;76.11;99857.03;5094091;28;20059;-53
2021/05/23 06:23:20;;;;;;;19.15;10.80;;;;;;;11.65;77.77;99858.50;5093980;28;20048;-57
2021/05/23 06:25:47;;;;;;;15.77;11.65;;;;;;;11.50;79.30;99877.44;5094102;28;20056;-57
2021/05/23 06:28:14;;;;;;;17.50;12.40;;;;;;;11.58;79.74;99873.00;5095537;28;20059;-55
2021/05/23 06:30:41;;;;;;;13.02;10.75;;;;;;;11.68;79.12;99878.19;5095163;28;20055;-52
2021/05/23 06:33:09;;;;;;;17.95;11.70;;;;;;;11.51;79.94;99886.66;5094674;28;20048;-56
2021/05/23 06:35:36;;;;;;;19.13;10.98;;;;;;;11.20;82.19;99893.31;5094729;28;20063;-56
2021/05/23 06:38:03;;;;;;;16.73;10.55;;;;;;;11.04;83.71;99900.59;5093359;28;20059;-50
2021/05/23 06:40:30;;;;;;;21.45;11.27;;;;;;;10.72;84.46;99909.16;5094875;28;20056;-52
2021/05/23 06:42:56;;;;;;;16.88;10.98;;;;;;;10.57;85.00;99918.84;5094928;28;20096;-50
2021/05/23 06:45:23;;;;;;;16.33;9.82;;;;;;;10.38;84.19;99912.78;5093485;28;20412;-55
2021/05/23 06:47:50;;;;;;;20.08;11.45;;;;;;;10.09;86.71;99914.19;5090645;28;20526;-56
2021/05/23 06:50:18;;;;;;;18.70;11.93;;;;;;;10.22;86.97;99922.72;5094595;28;20047;-53
2021/05/23 06:52:45;;;;;;;15.57;10.80;;;;;;;10.25;86.21;99922.88;5094370;28;20052;-51
2021/05/23 06:55:13;;;;;;;15.35;9.80;;;;;;;10.31;85.05;99927.19;5088040;28;20041;-49
2021/05/23 06:57:40;;;;;;;17.67;9.25;;;;;;;10.33;84.46;99929.63;5082831;28;20055;-49
2021/05/23 07:00:08;;;;;;;12.27;7.65;;;;;;;10.32;83.46;99934.38;5077830;28;20488;-53
2021/05/23 07:02:35;;;;;;;10.40;5.45;;;;;;;10.45;81.31;99949.28;5072952;28;20049;-52
2021/05/23 07:05:02;;;;;;;11.18;6.55;;;;;;;10.51;81.19;99948.00;5073742;28;20409;-54
2021/05/23 07:07:31;;;;;;;10.95;6.90;;;;;;;10.73;80.99;99940.59;5073777;28;20045;-50
2021/05/23 07:09:59;;;;;;;6.88;5.75;;;;;;;11.00;80.33;99941.41;5073359;28;20119;-52
2021/05/23 07:12:26;;;;;;;8.82;5.70;;;;;;;10.96;78.65;99953.22;5074400;28;20408;-56
2021/05/23 07:14:53;;;;;;;10.20;5.30;;;;;;;11.07;79.02;99958.47;5078264;28;20044;-54
2021/05/23 07:17:20;;;;;;;6.72;5.35;;;;;;;11.15;78.83;99957.63;5085186;28;20048;-54
2021/05/23 07:19:47;;;;;;;7.50;4.50;;;;;;;11.05;77.15;99955.19;5084779;28;20059;-54
2021/05/23 07:22:13;;;;;;;7.70;5.07;;;;;;;10.95;77.34;99962.72;5092637;28;20507;-54
2021/05/23 07:24:41;;;;;;;8.40;4.90;;;;;;;10.88;77.43;99959.63;5077893;28;20506;-55
2021/05/23 07:27:08;;;;;;;7.75;4.22;;;;;;;10.69;76.84;99967.50;5072938;28;20052;-50
2021/05/23 07:29:35;;;;;;;8.80;5.47;;;;;;;10.67;77.37;99981.75;5087802;28;20059;-53
2021/05/23 07:32:02;;;;;;;7.70;4.75;;;;;;;10.54;78.99;99975.19;5058637;28;20058;-52
2021/05/23 07:34:29;;;;;;;9.65;5.18;;;;;;;10.56;79.70;99983.19;5071264;28;20044;-56
2021/05/23 07:36:56;;;;;;;6.82;5.25;;;;;;;10.44;79.47;99975.50;5078492;28;20052;-56
2021/05/23 07:39:23;;;;;;;9.80;5.85;;;;;;;10.36;79.39;99979.91;5070862;28;20056;-49
2021/05/23 07:41:50;;;;;;;7.10;5.07;;;;;;;10.49;78.74;99986.47;5067865;28;20049;-56
2021/05/23 07:44:17;;;;;;;7.65;5.80;;;;;;;10.68;78.11;99982.56;5073194;28;20040;-52
2021/05/23 07:46:46;;;;;;;15.40;6.28;;;;;;;10.84;76.37;99983.72;5073908;28;20052;-53
2021/05/23 07:49:14;;;;;;;7.35;5.25;;;;;;;10.93;75.40;99986.50;5073596;28;20055;-51
2021/05/23 07:51:41;;;;;;;9.75;5.50;;;;;;;11.36;75.17;99994.81;5073563;28;20449;-53
2021/05/23 07:54:08;;;;;;;9.13;5.03;;;;;;;11.96;73.46;99989.38;5074786;28;20053;-48
2021/05/23 07:56:34;;;;;;;9.70;4.20;;;;;;;12.46;70.14;99990.56;5072916;28;20386;-53
2021/05/23 07:59:05;;;;;;;9.40;4.60;;;;;;;13.47;66.86;99986.75;5075317;28;20045;-52
2021/05/23 08:01:32;;;;;;;6.15;3.50;;;;;;;16.10;58.39;99982.19;5078796;28;20366;-55
2021/05/23 08:03:58;;;;;;;6.20;3.17;;;;;;;17.38;53.23;99974.97;5072233;28;20075;-52
2021/05/23 08:06:26;;;;;;;5.75;2.85;;;;;;;18.88;49.56;99979.47;5071945;28;20041;-53
2021/05/23 08:08:53;;;;;;;5.22;2.70;;;;;;;18.10;49.95;99981.91;5073820;28;20041;-51
2021/05/23 08:11:20;;;;;;;5.85;3.00;;;;;;;18.61;47.39;99987.94;5087407;28;20059;-54
2021/05/23 08:13:47;;;;;;;5.00;2.55;;;;;;;20.28;43.55;99986.56;5093235;28;20059;-54
2021/05/23 08:16:17;;;;;;;6.40;2.38;;;;;;;20.76;41.55;99982.88;5093264;28;20495;-55
2021/05/23 08:18:44;;;;;;;3.30;1.95;;;;;;;20.76;41.16;99985.72;5092978;28;20091;-59
2021/05/23 08:21:11;;;;;;;5.10;2.05;;;;;;;21.36;41.26;99999.34;5081318;28;20065;-60
2021/05/23 08:23:38;;;;;;;6.32;2.30;;;;;;;21.12;41.15;100005.69;5073706;28;20056;-56
2021/05/23 08:26:05;;;;;;;5.25;2.28;;;;;;;20.66;39.69;100009.91;5072921;28;20052;-57
2021/05/23 08:28:33;;;;;;;4.78;2.70;;;;;;;20.10;40.05;100005.44;5072665;28;20053;-58
2021/05/23 08:31:01;;;;;;;4.63;2.22;;;;;;;21.99;38.04;99999.09;5072585;28;20059;-57
2021/05/23 08:33:30;;;;;;;7.20;2.50;;;;;;;24.01;33.36;100002.94;5073770;28;20052;-57
2021/05/23 08:35:59;;;;;;;5.75;2.33;;;;;;;24.21;31.31;100004.00;5093504;28;20056;-57
2021/05/23 08:38:26;;;;;;;5.72;2.50;;;;;;;25.91;32.05;100004.50;5093026;28;20056;-57
2021/05/23 08:40:55;;;;;;;4.47;2.00;;;;;;;27.77;27.85;99995.69;5093107;28;20052;-56
2021/05/23 08:43:25;;;;;;;3.67;1.98;;;;;;;28.68;26.34;100004.47;5092455;28;20126;-52
2021/05/23 08:45:53;;;;;;;5.30;2.33;;;;;;;28.03;26.07;100003.25;5072717;28;20107;-52
2021/05/23 08:48:20;;;;;;;3.38;1.90;;;;;;;27.48;24.62;100008.56;5072672;28;20078;-57
2021/05/23 08:50:48;;;;;;;6.22;2.40;;;;;;;27.45;25.65;100003.75;5072706;28;20056;-56
2021/05/23 08:53:16;;;;;;;3.97;1.40;;;;;;;27.17;24.45;99996.53;5072863;28;20509;-56
2021/05/23 08:55:44;;;;;;;4.88;2.03;;;;;;;27.40;25.38;100003.44;5073223;28;20060;-56
2021/05/23 08:58:11;;;;;;;4.30;2.00;;;;;;;29.31;24.33;99997.41;5072506;28;20048;-54
2021/05/23 09:00:38;;;;;;;3.75;1.60;;;;;;;27.60;25.27;100012.00;5072909;28;20053;-56
2021/05/23 09:03:07;;;;;;;3.05;1.75;;;;;;;29.20;19.10;100057.16;5072264;28;20064;-57
2021/05/23 09:05:35;;;;;;;3.63;1.80;;;;;;;31.05;17.87;100022.94;5072118;28;20055;-57
2021/05/23 09:08:08;;;;;;;4.18;1.70;;;;;;;32.96;16.51;99994.59;5072858;28;20049;-57
2021/05/23 09:10:38;;;;;;;3.95;2.00;;;;;;;34.01;15.52;100010.75;5072043;28;20116;-58
2021/05/23 09:13:05;;;;;;;3.70;2.00;;;;;;;34.16;15.44;100025.31;5072593;28;20378;-58
2021/05/23 09:15:33;;;;;;;3.33;1.90;;;;;;;35.07;13.68;100005.75;5072638;28;20508;-57
2021/05/23 09:18:01;;;;;;;4.32;1.52;;;;;;;36.05;13.99;100013.53;5073915;28;20063;-58
2021/05/23 09:20:28;;;;;;;3.25;1.70;;;;;;;35.42;14.04;100018.78;5076262;28;20057;-58
2021/05/23 09:22:55;;;;;;;3.80;1.27;;;;;;;33.02;16.08;100014.16;5076206;28;20061;-52
2021/05/23 09:25:32;;;;;;;4.40;1.38;;;;;;;30.01;18.30;100026.44;5079169;28;20052;-55
2021/05/23 09:27:59;;;;;;;4.80;1.20;;;;;;;27.46;20.57;100036.81;5076283;28;20473;-56
2021/05/23 09:30:28;;;;;;;4.00;1.25;;;;;;;26.09;23.69;100034.81;5076337;28;20386;-56
2021/05/23 09:32:56;;;;;;;;;;;;;;;25.34;22.79;100030.13;5076453;28;20107;-57
2021/05/23 09:35:27;;;;;;;4.15;2.15;;;;;;;28.77;20.38;100041.09;5075866;28;19999;-57
2021/05/23 09:37:59;;;;;;;4.38;2.10;;;;;;;30.98;17.98;100032.63;5056190;28;20080;-57
2021/05/23 09:40:28;;;;;;;10.88;2.15;;;;;;;30.11;17.77;100059.75;5056214;28;20111;-59
2021/05/23 09:42:57;;;;;;;4.32;1.17;;;;;;;30.61;17.46;100040.06;5056313;28;20079;-57
2021/05/23 09:45:37;;;;;;;4.03;2.30;;;;;;;31.66;15.56;100058.06;5073279;28;20049;-58
2021/05/23 09:48:06;;;;;;;4.75;2.13;;;;;;;32.56;15.19;100050.31;5076297;28;20057;-56
2021/05/23 09:50:38;;;;;;;3.92;1.40;;;;;;;33.66;14.56;100054.53;5075699;28;20061;-53
2021/05/23 09:53:23;;;;;;;4.47;2.00;;;;;;;34.78;12.72;100061.44;5075744;28;20055;-57
2021/05/23 09:55:55;;;;;;;3.95;1.08;;;;;;;32.57;14.56;100048.25;5074649;28;20055;-56
2021/05/23 09:58:24;;;;;;;3.80;1.40;;;;;;;29.81;16.92;100049.66;5075481;28;20409;-58
2021/05/23 10:00:52;;;;;;;4.18;1.40;;;;;;;27.33;19.52;100095.94;5075936;28;20060;-57
2021/05/23 10:03:24;;;;;;;3.72;1.40;;;;;;;25.38;21.74;100079.38;5075657;28;20052;-57
2021/05/23 10:05:51;;;;;;;3.38;2.05;;;;;;;26.62;20.73;100075.16;5074360;28;20044;-58
2021/05/23 10:08:21;;;;;;;4.22;1.23;;;;;;;29.01;18.05;100076.09;5075674;28;20485;-56
2021/05/23 10:10:49;;;;;;;3.97;1.52;;;;;;;29.19;17.72;100082.19;5071952;28;20048;-53
2021/05/23 10:13:20;;;;;;;4.70;1.65;;;;;;;27.65;19.63;100080.16;5076037;28;20052;-54
2021/05/23 10:15:49;;;;;;;3.92;1.10;;;;;;;27.56;19.43;100079.94;5074710;28;20052;-56
2021/05/23 10:18:16;;;;;;;3.87;1.60;;;;;;;28.54;18.92;100083.06;5071198;28;20052;-52
2021/05/23 10:20:44;;;;;;;3.45;1.65;;;;;;;29.45;18.34;100100.28;5073158;28;20501;-54
2021/05/23 10:23:16;;;;;;;3.75;1.00;;;;;;;27.31;19.91;100089.84;5073198;28;20052;-55
2021/05/23 10:25:48;;;;;;;4.68;1.50;;;;;;;25.46;22.41;100107.38;5074052;28;20063;-55
2021/05/23 10:28:16;;;;;;;5.07;1.30;;;;;;;23.27;23.74;100099.56;5063786;28;20071;-55
2021/05/23 10:30:48;;;;;;;2.67;1.80;;;;;;;24.11;23.48;100110.19;5070482;28;20053;-57
2021/05/23 10:33:16;;;;;;;3.90;1.60;;;;;;;24.78;22.95;100098.69;5073318;28;20052;-57
2021/05/23 10:35:44;;;;;;;4.22;1.30;;;;;;;24.74;22.85;100095.91;5074864;28;20052;-54
2021/05/23 10:38:14;;;;;;;3.33;1.42;;;;;;;24.45;23.35;100116.03;5075384;28;20079;-53
2021/05/23 10:40:52;;;;;;;4.15;1.98;;;;;;;25.35;22.20;100109.56;5073735;28;20067;-55
2021/05/23 10:43:28;;;;;;;3.25;2.20;;;;;;;29.65;17.96;100103.00;5054907;28;20418;-53
2021/05/23 10:46:12;;;;;;;3.28;1.27;;;;;;;30.01;16.23;100113.41;5056536;28;20067;-54
2021/05/23 10:48:40;;;;;;;3.10;1.13;;;;;;;26.94;19.40;100126.03;5071519;28;20056;-56
2021/05/23 10:51:14;;;;;;;2.38;1.10;;;;;;;24.15;21.92;100118.69;5075245;28;20049;-53
2021/05/23 10:53:41;;;;;;;2.55;0.98;;;;;;;22.93;23.65;100124.75;5077205;28;20381;-55
2021/05/23 10:56:19;;;;;;;3.13;1.23;;;;;;;22.25;25.05;100129.22;5095157;28;20055;-53
2021/05/23 10:58:52;;;;;;;5.53;1.20;;;;;;;22.92;23.53;100114.63;5093455;28;20059;-53
2021/05/23 11:01:36;;;;;;;3.17;1.13;;;;;;;21.96;26.10;100118.97;5095078;28;20473;-55
2021/05/23 11:04:11;;;;;;;2.20;0.90;;;;;;;21.28;26.97;100122.31;5094589;28;20070;-53
2021/05/23 11:06:38;;;;;;;3.42;0.90;;;;;;;20.55;27.88;100113.69;5094377;28;21676;-52
2021/05/23 11:09:07;;;;;;;3.30;1.48;;;;;;;20.01;28.40;100124.47;5094327;28;20052;-57
2021/05/23 11:11:34;;;;;;;5.50;2.30;;;;;;;20.74;27.70;100143.78;5094856;28;20059;-53
2021/05/23 11:14:21;;;;;;;3.50;2.10;;;;;;;26.40;20.38;100103.28;5094350;28;20055;-55
2021/05/23 11:16:50;;;;;;;3.42;1.05;;;;;;;26.73;19.80;100095.78;5094110;28;20055;-57
2021/05/23 11:19:21;;;;;;;2.45;1.17;;;;;;;25.45;19.60;100100.06;5094317;28;20071;-57
2021/05/23 11:21:51;;;;;;;2.35;0.73;;;;;;;24.16;21.45;100101.19;5094450;28;20056;-57
2021/05/23 11:24:19;;;;;;;4.18;0.75;;;;;;;23.78;21.91;100094.53;5093332;28;20412;-57
2021/05/23 11:26:46;;;;;;;2.65;0.93;;;;;;;23.16;22.91;100107.31;5094545;28;20477;-57
2021/05/23 11:29:13;;;;;;;3.80;1.30;;;;;;;25.70;19.99;100104.63;5094354;28;20047;-57
2021/05/23 11:31:44;;;;;;;3.78;2.03;;;;;;;27.77;18.27;100102.38;5094324;28;20056;-57
2021/05/23 11:34:15;;;;;;;2.45;0.82;;;;;;;25.96;18.74;100099.44;5094472;28;20059;-56
2021/05/23 11:36:42;;;;;;;2.35;0.90;;;;;;;24.22;20.84;100113.75;5094113;28;20048;-54